createdAt,value
2024-03-05T00:02:04.248Z,7.00
2024-03-05T00:04:33.231Z,7.00
2024-03-05T00:07:01.432Z,7.00
2024-03-05T00:09:32.065Z,7.10
2024-03-05T00:12:01.635Z,7.10
2024-03-05T00:14:29.664Z,7.10
2024-03-05T00:16:57.836Z,7.00
2024-03-05T00:19:26.876Z,7.00
2024-03-05T00:21:54.917Z,7.00
2024-03-05T00:24:23.671Z,7.00
2024-03-05T00:26:51.719Z,7.00
2024-03-05T00:29:21.095Z,7.00
2024-03-05T00:31:49.167Z,7.10
2024-03-05T00:34:17.270Z,7.10
2024-03-05T00:36:45.645Z,7.10
2024-03-05T00:39:13.976Z,7.20
2024-03-05T00:41:42.218Z,7.20
2024-03-05T00:44:11.000Z,7.20
2024-03-05T00:46:42.107Z,7.20
2024-03-05T00:49:13.565Z,7.20
2024-03-05T00:51:41.870Z,7.20
2024-03-05T00:54:11.083Z,7.20
2024-03-05T00:56:39.394Z,7.20
2024-03-05T00:59:07.486Z,7.20
2024-03-05T01:01:35.828Z,7.20
2024-03-05T01:04:06.140Z,7.20
2024-03-05T01:06:34.216Z,7.20
2024-03-05T01:09:02.371Z,7.20
2024-03-05T01:11:31.557Z,7.20
2024-03-05T01:14:00.285Z,7.10
2024-03-05T01:16:28.484Z,7.20
2024-03-05T01:18:56.780Z,7.20
2024-03-05T01:21:26.157Z,7.20
2024-03-05T01:23:54.482Z,7.30
2024-03-05T01:26:23.010Z,7.20
2024-03-05T01:28:51.132Z,7.20
2024-03-05T01:31:19.854Z,7.30
2024-03-05T01:33:48.165Z,7.30
2024-03-05T01:36:17.079Z,7.40
2024-03-05T01:38:46.499Z,7.50
2024-03-05T01:41:14.946Z,7.50
2024-03-05T01:43:43.183Z,7.40
2024-03-05T01:46:15.196Z,7.40
2024-03-05T01:48:44.454Z,7.40
2024-03-05T01:51:14.217Z,7.30
2024-03-05T01:53:42.280Z,7.20
2024-03-05T01:56:12.076Z,7.10
2024-03-05T01:58:41.948Z,7.00
2024-03-05T02:01:10.353Z,7.00
2024-03-05T02:03:38.363Z,7.10
2024-03-05T02:06:09.421Z,7.20
2024-03-05T02:08:37.508Z,7.20
2024-03-05T02:11:05.941Z,7.20
2024-03-05T02:13:35.412Z,7.10
2024-03-05T02:16:03.513Z,7.10
2024-03-05T02:18:31.570Z,7.10
2024-03-05T02:21:03.061Z,7.10
2024-03-05T02:23:31.155Z,7.10
2024-03-05T02:25:59.783Z,7.10
2024-03-05T02:28:27.940Z,7.20
2024-03-05T02:30:56.352Z,7.20
2024-03-05T02:33:24.460Z,7.30
2024-03-05T02:35:59.589Z,7.20
2024-03-05T02:38:29.123Z,7.20
2024-03-05T02:40:58.112Z,7.20
2024-03-05T02:43:26.515Z,7.10
2024-03-05T02:45:54.782Z,7.10
2024-03-05T02:48:23.835Z,7.10
2024-03-05T02:50:51.960Z,7.10
2024-03-05T02:53:19.979Z,7.10
2024-03-05T02:55:49.394Z,7.20
2024-03-05T02:58:18.102Z,7.20
2024-03-05T03:00:46.178Z,7.30
2024-03-05T03:03:15.257Z,7.30
2024-03-05T03:05:43.449Z,7.20
2024-03-05T03:08:12.816Z,7.20
2024-03-05T03:10:40.906Z,7.10
2024-03-05T03:13:11.135Z,7.10
2024-03-05T03:15:39.178Z,7.20
2024-03-05T03:18:07.691Z,7.10
2024-03-05T03:20:36.057Z,7.10
2024-03-05T03:23:04.404Z,7.10
2024-03-05T03:25:35.650Z,7.20
2024-03-05T03:28:05.796Z,7.10
2024-03-05T03:30:35.196Z,7.10
2024-03-05T03:33:05.608Z,7.10
2024-03-05T03:35:33.894Z,7.00
2024-03-05T03:38:02.213Z,7.10
2024-03-05T03:40:34.573Z,7.10
2024-03-05T03:43:02.763Z,7.00
2024-03-05T03:45:30.791Z,6.90
2024-03-05T03:48:00.444Z,7.00
2024-03-05T03:50:28.590Z,7.10
2024-03-05T03:52:56.624Z,7.10
2024-03-05T03:55:24.755Z,7.10
2024-03-05T03:57:52.764Z,7.20
2024-03-05T04:00:22.529Z,7.20
2024-03-05T04:02:50.620Z,7.20
2024-03-05T04:05:20.094Z,7.20
2024-03-05T04:07:48.203Z,7.20
2024-03-05T04:10:16.910Z,7.20
2024-03-05T04:12:46.134Z,7.20
2024-03-05T04:15:14.419Z,7.10
2024-03-05T04:17:42.697Z,7.10
2024-03-05T04:20:12.194Z,7.10
2024-03-05T04:22:41.972Z,7.10
2024-03-05T04:25:10.747Z,7.10
2024-03-05T04:27:46.792Z,7.00
2024-03-05T04:30:15.765Z,7.10
2024-03-05T04:32:56.270Z,7.20
2024-03-05T04:35:28.854Z,7.10
2024-03-05T04:37:59.307Z,7.00
2024-03-05T04:40:27.693Z,7.10
2024-03-05T04:42:56.839Z,7.10
2024-03-05T04:45:26.321Z,7.10
2024-03-05T04:47:54.614Z,7.10
2024-03-05T04:50:23.068Z,7.20
2024-03-05T04:52:52.206Z,7.10
2024-03-05T04:55:23.223Z,7.10
2024-03-05T04:57:52.297Z,7.10
2024-03-05T05:00:25.502Z,7.10
2024-03-05T05:02:54.381Z,7.10
2024-03-05T05:05:26.389Z,7.00
2024-03-05T05:07:57.521Z,7.00
2024-03-05T05:10:27.238Z,7.00
2024-03-05T05:12:55.664Z,7.00
2024-03-05T05:15:24.635Z,7.00
2024-03-05T05:17:52.788Z,7.10
2024-03-05T05:20:20.939Z,7.10
2024-03-05T05:22:48.972Z,7.10
2024-03-05T05:25:20.658Z,7.10
2024-03-05T05:27:50.582Z,7.20
2024-03-05T05:30:20.115Z,7.10
2024-03-05T05:32:49.108Z,7.20
2024-03-05T05:35:17.565Z,7.10
2024-03-05T05:37:46.134Z,7.10
2024-03-05T05:40:20.823Z,7.10
2024-03-05T05:42:51.712Z,7.10
2024-03-05T05:45:22.834Z,7.10
2024-03-05T05:47:55.467Z,7.10
2024-03-05T05:50:25.144Z,7.10
2024-03-05T05:52:55.281Z,7.10
2024-03-05T05:55:26.540Z,7.10
2024-03-05T05:57:57.987Z,7.10
2024-03-05T06:00:37.208Z,7.10
2024-03-05T06:03:07.992Z,7.10
2024-03-05T06:05:37.450Z,7.10
2024-03-05T06:08:09.049Z,7.10
2024-03-05T06:10:37.096Z,7.10
2024-03-05T06:13:07.988Z,7.20
2024-03-05T06:15:38.255Z,7.20
2024-03-05T06:18:07.491Z,7.20
2024-03-05T06:20:35.751Z,7.20
2024-03-05T06:23:03.892Z,7.20
2024-03-05T06:25:32.220Z,7.10
2024-03-05T06:28:03.262Z,7.20
2024-03-05T06:30:34.955Z,7.10
2024-03-05T06:33:02.999Z,7.10
2024-03-05T06:35:32.713Z,7.30
2024-03-05T06:38:02.065Z,7.30
2024-03-05T06:40:40.538Z,7.20
2024-03-05T06:43:14.389Z,7.20
2024-03-05T06:45:44.714Z,7.30
2024-03-05T06:48:17.589Z,7.10
2024-03-05T06:50:53.176Z,7.20
2024-03-05T06:53:38.713Z,7.20
2024-03-05T06:56:25.529Z,7.20
2024-03-05T06:58:54.400Z,7.20
2024-03-05T07:01:36.042Z,7.30
2024-03-05T07:04:15.348Z,7.30
2024-03-05T07:06:45.360Z,7.30
2024-03-05T07:09:31.992Z,7.40
2024-03-05T07:12:00.816Z,7.30
2024-03-05T07:14:29.105Z,7.40
2024-03-05T07:16:59.546Z,7.30
2024-03-05T07:19:28.237Z,7.40
2024-03-05T07:21:56.297Z,7.40
2024-03-05T07:24:24.314Z,7.40
2024-03-05T07:27:00.598Z,7.40
2024-03-05T07:29:32.540Z,7.50
2024-03-05T07:32:02.059Z,7.50
2024-03-05T07:34:30.314Z,7.50
2024-03-05T07:36:58.386Z,7.50
2024-03-05T07:39:26.677Z,7.40
2024-03-05T07:41:54.688Z,7.50
2024-03-05T07:44:24.269Z,7.50
2024-03-05T07:46:52.372Z,7.60
2024-03-05T07:49:21.865Z,7.50
2024-03-05T07:51:50.033Z,7.60
2024-03-05T07:54:18.602Z,7.60
2024-03-05T07:56:46.582Z,7.60
2024-03-05T07:59:14.680Z,7.60
2024-03-05T08:01:43.050Z,7.60
2024-03-05T08:04:11.129Z,7.70
2024-03-05T08:06:40.915Z,7.70
2024-03-05T08:09:09.189Z,7.70
2024-03-05T08:11:37.439Z,7.70
2024-03-05T08:14:08.564Z,7.60
2024-03-05T08:16:38.040Z,7.60
2024-03-05T08:19:06.049Z,7.70
2024-03-05T08:21:35.781Z,7.60
2024-03-05T08:24:06.485Z,7.60
2024-03-05T08:26:34.578Z,7.50
2024-03-05T08:29:01.693Z,7.60
2024-03-05T08:31:30.064Z,7.60
2024-03-05T08:33:58.473Z,7.60
2024-03-05T08:36:28.655Z,7.60
2024-03-05T08:38:56.697Z,7.60
2024-03-05T08:41:26.060Z,7.50
2024-03-05T08:43:54.372Z,7.60
2024-03-05T08:46:22.468Z,7.60
2024-03-05T08:48:50.525Z,7.50
2024-03-05T08:51:19.844Z,7.60
2024-03-05T08:53:47.866Z,7.60
2024-03-05T08:56:15.922Z,7.60
2024-03-05T08:58:45.288Z,7.60
2024-03-05T09:01:14.361Z,7.60
2024-03-05T09:03:42.802Z,7.60
2024-03-05T09:06:10.883Z,7.60
2024-03-05T09:08:40.241Z,7.60
2024-03-05T09:11:09.440Z,7.60
2024-03-05T09:13:37.522Z,7.60
2024-03-05T09:16:07.968Z,7.60
2024-03-05T09:18:36.053Z,7.60
2024-03-05T09:21:04.093Z,7.60
2024-03-05T09:23:32.163Z,7.60
2024-03-05T09:26:00.357Z,7.70
2024-03-05T09:28:28.425Z,7.70
2024-03-05T09:30:57.829Z,7.70
2024-03-05T09:33:27.587Z,7.80
2024-03-05T09:35:55.703Z,7.90
2024-03-05T09:38:23.983Z,7.80
2024-03-05T09:40:53.225Z,7.80
2024-03-05T09:43:24.058Z,7.80
2024-03-05T09:45:53.766Z,7.80
2024-03-05T09:48:23.961Z,7.80
2024-03-05T09:50:55.168Z,7.80
2024-03-05T09:53:23.259Z,7.80
2024-03-05T09:55:54.889Z,7.90
2024-03-05T09:58:37.894Z,7.80
2024-03-05T10:01:07.857Z,7.80
2024-03-05T10:03:38.214Z,7.80
2024-03-05T10:06:09.500Z,7.80
2024-03-05T10:08:37.565Z,7.70
2024-03-05T10:11:07.710Z,7.70
2024-03-05T10:13:38.129Z,7.70
2024-03-05T10:16:15.745Z,7.70
2024-03-05T10:18:44.007Z,7.70
2024-03-05T10:21:19.942Z,7.90
2024-03-05T10:23:50.332Z,8.00
2024-03-05T10:26:22.923Z,8.10
2024-03-05T10:28:52.188Z,8.30
2024-03-05T10:31:24.586Z,8.50
2024-03-05T10:33:55.373Z,8.70
2024-03-05T10:36:29.553Z,8.90
2024-03-05T10:38:58.498Z,8.80
2024-03-05T10:41:39.144Z,9.00
2024-03-05T10:44:16.288Z,9.00
2024-03-05T10:46:47.642Z,9.50
2024-03-05T10:49:18.261Z,9.30
2024-03-05T10:51:49.564Z,9.50
2024-03-05T10:54:18.933Z,9.20
2024-03-05T10:56:47.546Z,9.30
2024-03-05T10:59:32.555Z,9.30
2024-03-05T11:02:01.572Z,9.10
2024-03-05T11:04:33.240Z,9.20
2024-03-05T11:07:07.029Z,9.20
2024-03-05T11:09:36.841Z,9.30
2024-03-05T11:12:09.472Z,9.20
2024-03-05T11:14:38.692Z,9.10
2024-03-05T11:17:11.178Z,8.80
2024-03-05T11:19:41.707Z,9.00
2024-03-05T11:22:24.738Z,9.00
2024-03-05T11:24:56.689Z,8.90
2024-03-05T11:27:25.992Z,8.90
2024-03-05T11:30:07.143Z,8.90
2024-03-05T11:32:36.407Z,9.00
2024-03-05T11:35:04.611Z,8.80
2024-03-05T11:37:53.685Z,8.90
2024-03-05T11:40:30.306Z,9.10
2024-03-05T11:42:58.776Z,9.30
2024-03-05T11:45:45.486Z,9.50
2024-03-05T11:48:16.340Z,9.40
2024-03-05T11:50:44.508Z,9.40
2024-03-05T11:53:15.503Z,9.30
2024-03-05T11:55:44.076Z,9.20
2024-03-05T11:58:12.796Z,9.40
2024-03-05T12:00:40.902Z,9.30
2024-03-05T12:03:09.519Z,9.40
2024-03-05T12:05:43.220Z,9.40
2024-03-05T12:08:11.883Z,9.40
2024-03-05T12:10:41.788Z,9.40
2024-03-05T12:13:11.462Z,9.40
2024-03-05T12:15:42.089Z,9.50
2024-03-05T12:18:12.169Z,9.50
2024-03-05T12:20:43.321Z,9.60
2024-03-05T12:23:12.117Z,9.60
2024-03-05T12:25:41.572Z,9.40
2024-03-05T12:28:13.926Z,9.60
2024-03-05T12:30:42.105Z,9.70
2024-03-05T12:33:11.018Z,9.90
2024-03-05T12:35:40.492Z,9.80
2024-03-05T12:38:08.567Z,9.80
2024-03-05T12:40:36.815Z,9.50
2024-03-05T12:43:11.348Z,9.40
2024-03-05T12:45:39.992Z,9.50
2024-03-05T12:48:10.310Z,9.30
2024-03-05T12:50:40.515Z,9.80
2024-03-05T12:53:10.864Z,10.00
2024-03-05T12:55:39.277Z,9.90
2024-03-05T12:58:10.140Z,9.80
2024-03-05T13:00:39.658Z,10.00
2024-03-05T13:03:26.532Z,10.40
2024-03-05T13:05:54.696Z,10.40
2024-03-05T13:08:36.179Z,10.20
2024-03-05T13:11:07.620Z,10.30
2024-03-05T13:13:37.225Z,10.30
2024-03-05T13:16:06.533Z,10.00
2024-03-05T13:18:50.747Z,9.90
2024-03-05T13:21:25.905Z,10.20
2024-03-05T13:23:53.949Z,10.30
2024-03-05T13:26:23.678Z,10.30
2024-03-05T13:28:55.192Z,10.30
2024-03-05T13:31:23.345Z,10.50
2024-03-05T13:33:55.746Z,10.60
2024-03-05T13:36:25.059Z,10.70
2024-03-05T13:38:53.328Z,10.70
2024-03-05T13:41:22.377Z,10.90
2024-03-05T13:43:50.559Z,11.10
2024-03-05T13:46:21.057Z,11.10
2024-03-05T13:48:49.120Z,11.10
2024-03-05T13:51:25.340Z,10.90
2024-03-05T13:53:53.381Z,11.00
2024-03-05T13:56:21.573Z,11.10
2024-03-05T13:58:49.626Z,10.90
2024-03-05T14:01:20.443Z,10.60
2024-03-05T14:03:48.702Z,10.70
2024-03-05T14:06:17.415Z,10.60
2024-03-05T14:08:45.553Z,10.80
2024-03-05T14:11:20.944Z,10.50
2024-03-05T14:13:49.673Z,10.60
2024-03-05T14:16:19.104Z,10.50
2024-03-05T14:18:49.719Z,10.40
2024-03-05T14:21:17.762Z,10.50
2024-03-05T14:23:45.809Z,10.30
2024-03-05T14:26:18.092Z,10.30
2024-03-05T14:28:47.196Z,10.50
2024-03-05T14:31:15.254Z,10.50
2024-03-05T14:33:43.891Z,10.60
2024-03-05T14:36:15.193Z,10.60
2024-03-05T14:38:44.730Z,10.60
2024-03-05T14:41:14.080Z,10.50
2024-03-05T14:43:42.330Z,10.50
2024-03-05T14:46:10.490Z,10.50
2024-03-05T14:48:41.123Z,10.50
2024-03-05T14:51:12.144Z,10.50
2024-03-05T14:53:41.635Z,10.40
2024-03-05T14:56:10.004Z,10.30
2024-03-05T14:58:40.273Z,10.30
2024-03-05T15:01:08.721Z,10.30
2024-03-05T15:03:48.747Z,10.30
2024-03-05T15:06:18.758Z,10.20
2024-03-05T15:08:50.063Z,10.20
2024-03-05T15:11:18.520Z,10.10
2024-03-05T15:13:46.731Z,10.10
2024-03-05T15:16:15.058Z,10.10
2024-03-05T15:18:43.040Z,10.20
2024-03-05T15:21:15.257Z,10.30
2024-03-05T15:23:43.615Z,10.40
2024-03-05T15:26:13.112Z,10.50
2024-03-05T15:28:42.213Z,10.50
2024-03-05T15:31:11.094Z,10.50
